Aérodrome :
LOGIN :

S'inscrire | Disclaimer

   EN    FR    IT 

 










Légende :    VFR   VFR Marginal   IFR   IFR Intensif   IFR Très Intensif
Visi : 
Plafond : 
>= 8 km
>= 3000ft
5 à 8 km
1000 à 3000 ft
1500m à 5 km
500 à 1000 ft
800 à 1500m
200 à 500 ft
< 800m
< 200 ft
Symboles :   Orages  Brouillard  Fortes neiges  Fortes précipitations  Vent > 20 kt
SIGMETs :   Divers  Orages  Givrage  Turbulence  Onde Orograph.  Cendres Volcan.






- Altitude de l'aérodrome : 675 ft
- Code IATA : RZE


EPRZ - Rzeszow-Jasionka

DERNIER METAR :
  • 070030Z 21014KT CAVOK M02/M06 Q1013

METARs EXPIRÉS :
  • 070000Z 20013KT CAVOK M02/M06 Q1013
  • 062330Z 20014KT 170V230 CAVOK M02/M06 Q1013
  • 062300Z 20015KT CAVOK M02/M06 Q1014
  • 062230Z 21015KT CAVOK M02/M05 Q1014
  • 062200Z 20012KT CAVOK M02/M05 Q1014

TAF TAF EPRZ
Valide du 07 à 00h jusqu'au 08 à 00h UTC


062330Z 0700/0724 21015KT CAVOK
TEMPO 0700/0710 20015G25KT
TEMPO 0710/0712 22017G27KT 2000 SN SNRA BKN007 OVC020
TEMPO 0712/0724 23016G26KT 4000 RA BR BKN014



MET'MAP, la Météo Aéronautique d'un coup d'oeil ! - Copyright ORBIFLY Décembre 2007 - Disclaimer

ORBIFLY MET'MAP TEAM :

Programmation & Développement : Alexandra Zaïnal
Sur une idée originale de : Baudouin d'Aumeries
Assistance à la programmation : Marc-Olivier Méhu
Soutien technique & logistique : Manuel Goepfert

Contact : metmap@orbifly.com




SOURCES & CREDITS :

   NOAA